createdAt,value
2022-12-04T00:04:18.860Z,2.30
2022-12-04T00:19:20.749Z,2.50
2022-12-04T00:34:23.100Z,2.40
2022-12-04T00:49:24.931Z,2.30
2022-12-04T01:04:26.961Z,2.20
2022-12-04T01:19:28.902Z,2.20
2022-12-04T01:34:30.789Z,2.30
2022-12-04T01:49:45.302Z,2.30
2022-12-04T02:04:47.757Z,2.20
2022-12-04T02:19:58.931Z,2.10
2022-12-04T02:35:35.538Z,2.40
2022-12-04T02:50:40.480Z,2.30
2022-12-04T03:05:57.396Z,2.80
2022-12-04T03:21:10.504Z,2.90
2022-12-04T03:36:19.926Z,2.40
2022-12-04T03:51:35.470Z,2.60
2022-12-04T04:06:42.323Z,2.40
2022-12-04T04:22:04.819Z,2.10
2022-12-04T04:37:21.639Z,2.20
2022-12-04T04:52:25.005Z,1.90
2022-12-04T05:07:26.932Z,2.10
2022-12-04T05:22:34.290Z,2.80
2022-12-04T05:37:38.180Z,2.60
2022-12-04T05:52:40.042Z,2.10
2022-12-04T06:07:42.097Z,2.00
2022-12-04T06:22:44.082Z,2.00
2022-12-04T06:37:45.994Z,1.90
2022-12-04T06:52:47.880Z,1.90
2022-12-04T07:07:49.774Z,1.90
2022-12-04T07:22:51.702Z,1.70
2022-12-04T07:37:53.532Z,2.00
2022-12-04T07:52:55.403Z,2.20
2022-12-04T08:07:57.331Z,2.70
2022-12-04T08:22:59.273Z,2.80
2022-12-04T08:38:01.194Z,3.20
2022-12-04T08:53:03.067Z,3.70
2022-12-04T09:08:05.093Z,4.00
2022-12-04T09:23:07.138Z,4.80
2022-12-04T09:38:09.056Z,5.40
2022-12-04T09:53:26.884Z,5.50
2022-12-04T10:09:03.673Z,5.60
2022-12-04T10:24:44.628Z,5.80
2022-12-04T10:39:58.162Z,5.90
2022-12-04T10:55:01.290Z,6.50
2022-12-04T11:10:21.944Z,6.70
2022-12-04T11:25:26.974Z,6.80
2022-12-04T11:40:29.730Z,6.90
2022-12-04T11:55:46.736Z,6.50
2022-12-04T12:10:59.623Z,6.50
2022-12-04T12:26:11.213Z,6.50
2022-12-04T12:41:26.221Z,6.50
2022-12-04T12:56:43.351Z,6.90
2022-12-04T13:11:50.953Z,6.80
2022-12-04T13:27:13.566Z,6.70
2022-12-04T13:42:27.564Z,6.40
2022-12-04T13:57:29.648Z,6.20
2022-12-04T14:12:38.975Z,6.00
2022-12-04T14:27:40.821Z,5.90
2022-12-04T14:42:42.967Z,5.80
2022-12-04T14:58:23.046Z,5.50
2022-12-04T15:13:30.440Z,5.30
2022-12-04T15:28:40.599Z,5.10
2022-12-04T15:43:45.581Z,4.80
2022-12-04T15:59:00.249Z,4.80
2022-12-04T16:14:08.339Z,4.60
2022-12-04T16:29:10.208Z,4.50
2022-12-04T16:44:16.786Z,4.30
2022-12-04T16:59:18.655Z,3.90
2022-12-04T17:14:20.579Z,3.90
2022-12-04T17:29:22.441Z,3.70
2022-12-04T17:44:24.285Z,3.60
2022-12-04T17:59:26.361Z,3.30
2022-12-04T18:14:29.492Z,3.20
2022-12-04T18:29:31.360Z,3.10
2022-12-04T18:44:33.490Z,2.70
2022-12-04T18:59:37.528Z,3.20
2022-12-04T19:14:39.959Z,3.50
2022-12-04T19:29:43.455Z,3.50
2022-12-04T19:44:49.663Z,3.40
2022-12-04T19:59:51.895Z,3.80
2022-12-04T20:14:54.021Z,3.20
2022-12-04T20:29:56.035Z,3.20
2022-12-04T20:44:58.110Z,3.30
2022-12-04T21:00:00.364Z,3.30
2022-12-04T21:15:20.674Z,3.30
2022-12-04T21:30:22.548Z,3.30
2022-12-04T21:45:24.452Z,3.30
2022-12-04T22:00:26.326Z,3.40
2022-12-04T22:15:28.161Z,3.40
2022-12-04T22:30:30.541Z,3.50
2022-12-04T22:45:32.395Z,3.40
2022-12-04T23:00:34.217Z,3.40
2022-12-04T23:15:37.818Z,3.40
2022-12-04T23:30:46.122Z,3.40
2022-12-04T23:45:48.034Z,3.40
